Time;durP1;ratioP1;P1;durP2;ratioP2;P2;SDS_P1;SDS_P2;PMS_P1;PMS_P2;Temp;Humidity;BMP_temperature;BMP_pressure;BME280_temperature;BME280_humidity;BME280_pressure;Samples;Min_cycle;Max_cycle;Signal;HPM_P1;HPM_P2
2022/09/04 00:46:59;;;;;;;2.50;1.13;;;;;;;16.10;50.14;100837.91;4874046;28;98189;-63
2022/09/04 11:29:54;;;;;;;1.38;0.65;;;;;;;44.22;21.66;101049.47;5905618;22;98730;-77
2022/09/04 11:33:14;;;;;;;1.30;0.77;;;;;;;43.94;21.25;101054.63;4913675;28;100274;-79
2022/09/04 11:35:59;;;;;;;1.13;0.60;;;;;;;43.88;21.58;101047.25;4879052;28;98666;-70
2022/09/04 11:39:27;;;;;;;1.00;0.60;;;;;;;43.74;21.40;101041.00;4925908;28;98463;-76
2022/09/04 11:42:29;;;;;;;2.58;0.60;;;;;;;43.47;21.59;101050.53;4857158;28;98145;-70
2022/09/04 11:45:32;;;;;;;1.25;0.70;;;;;;;43.16;20.92;101047.22;4886990;28;98402;-70
2022/09/04 11:48:46;;;;;;;1.85;0.70;;;;;;;43.23;21.38;101044.00;4923343;28;98252;-79
2022/09/04 11:52:15;;;;;;;1.10;0.50;;;;;;;43.20;21.33;101050.66;4923360;28;98677;-70
2022/09/04 11:55:32;;;;;;;1.10;0.57;;;;;;;42.36;21.86;101047.25;4910956;28;98330;-70
2022/09/04 11:58:30;;;;;;;1.23;0.60;;;;;;;40.95;22.74;101033.78;4892366;28;97892;-70
2022/09/04 12:01:25;;;;;;;1.98;0.50;;;;;;;40.06;23.16;101039.16;4905460;28;98842;-78
2022/09/04 12:03:57;;;;;;;1.63;0.70;;;;;;;39.40;23.58;101048.19;4896657;28;98127;-79
2022/09/04 12:06:58;;;;;;;1.33;0.60;;;;;;;39.46;23.17;101040.78;4922207;28;98029;-78
2022/09/04 12:09:40;;;;;;;1.20;0.38;;;;;;;39.11;23.40;101045.50;4882806;28;97930;-79
2022/09/04 12:12:59;;;;;;;1.63;0.73;;;;;;;39.06;23.22;101043.22;4877024;28;100713;-79
2022/09/04 12:16:03;;;;;;;1.45;0.73;;;;;;;39.88;22.52;101043.38;4895381;28;98117;-69
2022/09/04 12:18:40;;;;;;;1.40;0.70;;;;;;;39.64;22.70;101042.97;4894231;28;98454;-78
2022/09/04 12:21:40;;;;;;;1.00;0.47;;;;;;;39.53;22.72;101037.69;4889504;28;98167;-78
2022/09/04 12:24:24;;;;;;;1.05;0.50;;;;;;;39.15;23.10;101037.72;4892221;28;98189;-78
2022/09/04 12:27:15;;;;;;;1.00;0.52;;;;;;;38.96;23.37;101041.56;4891905;28;98057;-78
2022/09/04 12:30:08;;;;;;;1.75;0.73;;;;;;;38.60;23.30;101036.97;4887202;28;98786;-78
2022/09/04 12:33:18;;;;;;;1.38;0.50;;;;;;;38.36;23.12;101038.47;4875753;28;98158;-70
2022/09/04 12:36:00;;;;;;;1.00;0.40;;;;;;;37.93;23.43;101046.06;4906406;28;98206;-78
2022/09/04 12:39:02;;;;;;;1.40;0.50;;;;;;;37.59;23.75;101043.69;4907683;28;98188;-70
2022/09/04 12:41:53;;;;;;;1.38;0.57;;;;;;;37.14;24.06;101041.56;4908876;28;98721;-69
2022/09/04 12:44:50;;;;;;;2.47;0.63;;;;;;;36.71;24.48;101042.50;4880103;28;97970;-69
2022/09/04 12:47:44;;;;;;;1.95;0.60;;;;;;;36.24;24.89;101039.81;4878563;28;98863;-69
2022/09/04 12:50:56;;;;;;;2.45;0.57;;;;;;;35.86;25.36;101045.69;4889756;28;98020;-69
2022/09/04 12:54:00;;;;;;;1.25;0.50;;;;;;;35.33;25.56;101047.34;4881037;28;98226;-70
2022/09/04 12:57:06;;;;;;;1.38;0.60;;;;;;;34.97;25.92;101040.63;4900237;28;98042;-78
2022/09/04 13:00:04;;;;;;;0.60;0.30;;;;;;;34.55;26.05;101037.19;4871627;28;98329;-70
2022/09/04 13:02:50;;;;;;;1.02;0.43;;;;;;;34.22;26.39;101044.34;4889733;28;98003;-69
2022/09/04 13:05:40;;;;;;;1.80;0.47;;;;;;;33.89;26.74;101047.44;4877111;28;98006;-79
2022/09/04 13:08:25;;;;;;;1.17;0.50;;;;;;;33.46;26.80;101047.78;4909483;28;98178;-70
2022/09/04 13:11:12;;;;;;;1.10;0.50;;;;;;;33.16;26.88;101039.97;4884615;28;98509;-78
2022/09/04 13:14:12;;;;;;;1.13;0.50;;;;;;;32.89;27.27;101039.69;4877052;28;98133;-79
2022/09/04 13:16:41;;;;;;;1.45;0.60;;;;;;;32.47;27.07;101047.06;4908940;28;98023;-69
2022/09/04 13:19:21;;;;;;;1.95;0.50;;;;;;;32.18;27.74;101037.16;4898453;28;98017;-69
2022/09/04 13:22:39;;;;;;;1.08;0.55;;;;;;;31.91;27.86;101042.38;4855181;28;98463;-70
2022/09/04 13:25:48;;;;;;;1.30;0.50;;;;;;;31.61;28.54;101037.97;4888525;28;98144;-78
2022/09/04 13:28:24;;;;;;;1.88;0.50;;;;;;;31.39;28.65;101041.94;4911954;28;98367;-69
2022/09/04 13:31:30;;;;;;;1.00;0.50;;;;;;;31.18;28.66;101049.03;4890053;28;98195;-68
2022/09/04 13:34:18;;;;;;;0.90;0.50;;;;;;;30.90;28.77;101046.97;4909390;28;97839;-78
2022/09/04 13:37:14;;;;;;;2.33;0.70;;;;;;;30.70;28.99;101045.69;4919114;28;99055;-69
2022/09/04 13:40:24;;;;;;;1.10;0.40;;;;;;;30.49;29.31;101049.13;4890983;28;98578;-69
2022/09/04 13:43:29;;;;;;;1.42;0.50;;;;;;;30.25;29.21;101054.16;4912102;28;98471;-69
2022/09/04 13:46:23;;;;;;;1.67;0.60;;;;;;;30.02;29.42;101057.16;4906381;28;98527;-77
2022/09/04 13:49:01;;;;;;;1.70;0.60;;;;;;;29.88;29.85;101056.28;4881316;28;99355;-69
2022/09/04 13:51:32;;;;;;;1.48;0.50;;;;;;;29.74;29.92;101057.75;4870249;28;98259;-69
2022/09/04 13:54:01;;;;;;;1.87;0.57;;;;;;;29.58;29.81;101059.97;4884014;28;98818;-77
2022/09/04 13:56:43;;;;;;;1.15;0.40;;;;;;;29.41;29.79;101049.50;4931655;28;98118;-78
2022/09/04 13:59:19;;;;;;;2.10;0.60;;;;;;;29.23;30.40;101047.31;4886706;28;98635;-69
2022/09/04 14:02:01;;;;;;;0.63;0.30;;;;;;;29.08;30.11;101056.66;4868796;28;98508;-69
2022/09/04 14:04:29;;;;;;;;;;;;;;;28.95;30.38;101060.84;4872470;28;98196;-77
2022/09/04 14:07:06;;;;;;;1.52;0.55;;;;;;;28.71;30.44;101051.84;4913750;28;100494;-69
2022/09/04 14:09:45;;;;;;;1.80;0.50;;;;;;;28.55;31.01;101065.09;4876592;28;97984;-77
2022/09/04 14:12:53;;;;;;;1.15;0.40;;;;;;;28.45;30.73;101057.44;4890842;28;98251;-69
2022/09/04 14:16:02;;;;;;;1.17;0.47;;;;;;;28.30;31.42;101059.19;4916833;28;99600;-68
2022/09/04 14:19:10;;;;;;;1.02;0.40;;;;;;;28.16;31.09;101061.75;4899398;28;98450;-78
2022/09/04 14:22:01;;;;;;;1.20;0.50;;;;;;;28.00;31.34;101057.16;4890174;28;98095;-77
2022/09/04 14:24:55;;;;;;;0.80;0.30;;;;;;;27.85;31.52;101058.88;4914345;28;98159;-77
2022/09/04 14:28:05;;;;;;;1.48;0.45;;;;;;;27.73;31.50;101064.59;4875212;28;98519;-68
2022/09/04 14:30:54;;;;;;;1.20;0.52;;;;;;;27.60;31.84;101068.72;4911140;28;98179;-77
2022/09/04 14:34:01;;;;;;;0.88;0.40;;;;;;;27.48;31.74;101064.16;4893428;28;98514;-77
2022/09/04 14:37:14;;;;;;;1.10;0.50;;;;;;;27.35;32.11;101073.78;4906673;28;98062;-74
2022/09/04 14:40:14;;;;;;;1.02;0.30;;;;;;;27.28;32.19;101076.44;4911000;28;99375;-77
2022/09/04 14:42:57;;;;;;;1.48;0.40;;;;;;;27.27;32.28;101063.75;4906814;28;100300;-77
2022/09/04 14:45:58;;;;;;;1.73;0.70;;;;;;;27.22;32.12;101070.38;4876996;28;98528;-76
2022/09/04 14:48:26;;;;;;;1.37;0.40;;;;;;;27.16;32.52;101080.97;4919546;28;98404;-76
2022/09/04 14:50:55;;;;;;;1.30;0.47;;;;;;;27.09;32.56;101074.47;4883445;28;98528;-76
2022/09/04 14:53:25;;;;;;;3.08;0.68;;;;;;;27.04;32.62;101080.25;4879108;28;98189;-68
2022/09/04 14:56:09;;;;;;;1.00;0.40;;;;;;;27.02;32.69;101077.88;4912331;28;97950;-68
2022/09/04 14:58:50;;;;;;;1.90;0.60;;;;;;;26.93;32.78;101086.41;4915185;28;98068;-77
2022/09/04 15:01:23;;;;;;;1.63;0.40;;;;;;;26.90;32.61;101084.34;4877498;28;100274;-67
2022/09/04 15:04:17;;;;;;;2.15;0.63;;;;;;;26.84;33.03;101091.34;4900601;28;98192;-77
2022/09/04 15:06:53;;;;;;;1.83;0.55;;;;;;;26.79;33.01;101083.31;4893006;28;98117;-77
2022/09/04 15:09:38;;;;;;;2.40;0.60;;;;;;;26.78;32.95;101092.00;4874510;28;97908;-78
2022/09/04 15:12:31;;;;;;;1.48;0.52;;;;;;;26.74;33.25;101091.13;4888161;28;98471;-69
2022/09/04 15:15:43;;;;;;;1.10;0.50;;;;;;;26.64;33.11;101093.25;4906850;28;98461;-77
2022/09/04 15:18:22;;;;;;;1.27;0.57;;;;;;;26.54;33.37;101090.28;4917705;28;99097;-69
2022/09/04 15:21:08;;;;;;;1.10;0.40;;;;;;;26.48;33.34;101094.47;4882270;28;98571;-78
2022/09/04 15:23:53;;;;;;;1.13;0.40;;;;;;;26.41;33.40;101095.91;4907359;28;98617;-78
2022/09/04 15:26:54;;;;;;;2.55;0.60;;;;;;;26.37;33.36;101102.50;4898253;28;98343;-72
2022/09/04 15:29:56;;;;;;;1.08;0.45;;;;;;;26.27;33.63;101100.28;4912923;28;99361;-77
2022/09/04 15:32:38;;;;;;;1.52;0.60;;;;;;;26.17;33.89;101102.44;4844923;28;98082;-78
2022/09/04 15:35:18;;;;;;;1.75;0.73;;;;;;;26.08;33.63;101109.31;4844425;28;98367;-68
2022/09/04 15:38:08;;;;;;;1.70;0.60;;;;;;;25.99;33.88;101105.94;4883992;28;98155;-78
2022/09/04 15:40:54;;;;;;;1.35;0.40;;;;;;;25.89;34.02;101105.28;4862769;28;98209;-68
2022/09/04 15:43:32;;;;;;;1.63;0.47;;;;;;;25.79;34.21;101108.59;4876108;28;98107;-77
2022/09/04 15:46:29;;;;;;;1.85;0.47;;;;;;;25.70;34.12;101105.97;4864290;28;99169;-78
2022/09/04 15:49:32;;;;;;;2.33;0.40;;;;;;;25.63;34.47;101113.28;4862435;28;99139;-68
2022/09/04 15:52:41;;;;;;;1.70;0.70;;;;;;;25.52;34.44;101104.69;4902279;28;97878;-68
2022/09/04 15:55:30;;;;;;;1.08;0.60;;;;;;;25.42;34.81;101113.47;4872300;28;99938;-77
2022/09/04 15:58:28;;;;;;;2.28;0.73;;;;;;;25.31;34.89;101109.63;4857252;28;98301;-77
2022/09/04 16:01:18;;;;;;;1.48;0.57;;;;;;;25.21;34.78;101110.94;4869692;28;100451;-68
2022/09/04 16:04:11;;;;;;;1.40;0.70;;;;;;;25.09;35.19;101120.06;4878203;28;98158;-68
2022/09/04 16:06:53;;;;;;;2.35;0.52;;;;;;;25.03;35.22;101124.16;4869646;28;98658;-68
2022/09/04 16:09:52;;;;;;;1.80;0.60;;;;;;;24.94;35.36;101129.84;4851255;28;98214;-68
2022/09/04 16:12:29;;;;;;;1.60;0.73;;;;;;;24.86;35.86;101125.25;4870048;28;98349;-68
2022/09/04 16:15:09;;;;;;;1.20;0.70;;;;;;;24.81;35.72;101121.97;4846756;28;98897;-68
2022/09/04 16:17:55;;;;;;;1.77;0.50;;;;;;;24.76;35.79;101128.50;4855210;28;98434;-68
2022/09/04 16:20:33;;;;;;;1.67;0.50;;;;;;;24.68;35.87;101126.66;4881556;28;97958;-77
2022/09/04 16:23:07;;;;;;;1.95;0.45;;;;;;;24.66;36.15;101131.72;4915495;28;98119;-77
2022/09/04 16:25:42;;;;;;;1.30;0.65;;;;;;;24.61;36.24;101124.50;4898390;28;98159;-76
2022/09/04 16:28:31;;;;;;;1.80;0.73;;;;;;;24.57;36.49;101131.06;4840257;28;98223;-68
2022/09/04 16:31:28;;;;;;;2.58;0.63;;;;;;;24.52;36.47;101134.84;4873730;28;98186;-76
2022/09/04 16:34:20;;;;;;;0.93;0.43;;;;;;;24.47;36.47;101140.59;4862970;28;98420;-77
2022/09/04 16:37:14;;;;;;;2.08;0.73;;;;;;;24.37;36.79;101133.56;4865076;28;98243;-68
2022/09/04 16:39:43;;;;;;;1.52;0.60;;;;;;;24.32;36.94;101142.03;4855529;28;99299;-77
2022/09/04 16:42:40;;;;;;;1.55;0.47;;;;;;;24.25;36.90;101141.84;4900984;28;98039;-76
2022/09/04 16:45:48;;;;;;;0.93;0.47;;;;;;;24.19;36.94;101148.72;4864632;28;99692;-68
2022/09/04 16:48:48;;;;;;;2.28;0.80;;;;;;;24.10;36.92;101151.56;4862927;28;99315;-77
2022/09/04 16:51:28;;;;;;;2.45;0.98;;;;;;;24.04;37.26;101146.63;4832714;28;98083;-69
2022/09/04 16:54:22;;;;;;;2.28;1.00;;;;;;;23.99;37.29;101147.66;4874852;28;98527;-76
2022/09/04 16:57:11;;;;;;;1.75;0.80;;;;;;;23.91;37.20;101152.09;4859480;28;98302;-68
2022/09/04 16:59:48;;;;;;;1.85;0.70;;;;;;;23.83;37.36;101147.50;4839628;28;98393;-75
2022/09/04 17:02:42;;;;;;;1.55;0.70;;;;;;;23.76;37.56;101158.25;4868111;28;98273;-76
2022/09/04 17:05:44;;;;;;;1.98;0.55;;;;;;;23.69;37.52;101155.25;4847949;28;98701;-76
2022/09/04 17:08:33;;;;;;;1.65;0.60;;;;;;;23.59;37.78;101156.47;4844979;28;98175;-68
2022/09/04 17:11:42;;;;;;;1.55;0.65;;;;;;;23.53;38.02;101157.81;4863693;28;98378;-76
2022/09/04 17:14:37;;;;;;;1.40;0.70;;;;;;;23.43;38.00;101161.00;4854343;28;99586;-76
2022/09/04 17:17:21;;;;;;;1.85;0.47;;;;;;;23.36;38.38;101169.78;4857382;28;98504;-67
2022/09/04 17:20:12;;;;;;;0.73;0.35;;;;;;;23.28;38.29;101176.97;4871476;28;99592;-68
2022/09/04 17:23:04;;;;;;;1.40;0.57;;;;;;;23.21;38.60;101168.44;4857459;28;98884;-76
2022/09/04 17:26:19;;;;;;;1.65;0.50;;;;;;;23.15;38.34;101180.81;4834015;28;98491;-75
2022/09/04 17:29:09;;;;;;;1.15;0.50;;;;;;;23.07;38.30;101175.34;4847165;28;98403;-76
2022/09/04 17:31:58;;;;;;;2.40;0.70;;;;;;;22.98;38.52;101178.97;4866781;28;98373;-67
2022/09/04 17:34:54;;;;;;;2.70;0.70;;;;;;;22.92;38.75;101172.06;4863668;28;98069;-67
2022/09/04 17:38:20;;;;;;;1.70;0.70;;;;;;;22.84;38.91;101183.09;4880530;28;98163;-76
2022/09/04 17:41:20;;;;;;;1.50;0.55;;;;;;;22.74;39.02;101185.06;4882952;28;98690;-76
2022/09/04 17:44:36;;;;;;;1.30;0.70;;;;;;;22.66;39.03;101185.94;4853111;28;98070;-66
2022/09/04 17:47:19;;;;;;;1.38;0.65;;;;;;;22.58;39.14;101191.47;4874554;28;98372;-66
2022/09/04 17:49:50;;;;;;;1.08;0.43;;;;;;;22.50;39.46;101187.63;4861103;28;98179;-67
2022/09/04 17:52:51;;;;;;;1.02;0.55;;;;;;;22.44;39.41;101186.19;4847704;28;98312;-76
2022/09/04 17:55:19;;;;;;;1.40;0.70;;;;;;;22.38;39.62;101198.50;4850297;28;99189;-67
2022/09/04 17:57:58;;;;;;;1.10;0.63;;;;;;;22.31;39.60;101201.75;4844225;28;98194;-67
2022/09/04 18:01:04;;;;;;;1.42;0.68;;;;;;;22.25;39.55;101201.16;4860788;28;98316;-76
2022/09/04 18:04:08;;;;;;;2.03;0.50;;;;;;;22.20;39.91;101214.22;4861392;28;98905;-68
2022/09/04 18:06:40;;;;;;;3.30;0.70;;;;;;;22.11;39.92;101211.47;4884771;28;98965;-67
2022/09/04 18:09:38;;;;;;;2.92;0.70;;;;;;;22.08;39.85;101223.09;4860783;28;98274;-76
2022/09/04 18:12:20;;;;;;;1.23;0.63;;;;;;;22.01;40.12;101229.13;4886171;28;98136;-76
2022/09/04 18:15:17;;;;;;;1.20;0.50;;;;;;;21.95;39.94;101229.59;4844909;28;98223;-76
2022/09/04 18:18:18;;;;;;;1.10;0.50;;;;;;;21.91;40.14;101236.88;4857549;28;98307;-67
2022/09/04 18:21:06;;;;;;;1.33;0.52;;;;;;;21.83;40.41;101238.50;4884345;28;98247;-68
2022/09/04 18:24:29;;;;;;;1.83;0.70;;;;;;;21.78;40.26;101244.16;4832333;28;98110;-67
2022/09/04 18:27:22;;;;;;;2.55;0.68;;;;;;;21.70;40.54;101250.47;4830232;28;98331;-76
2022/09/04 18:30:04;;;;;;;1.60;0.60;;;;;;;21.65;40.70;101253.34;4860922;28;98936;-76
2022/09/04 18:32:44;;;;;;;1.55;0.80;;;;;;;21.60;40.81;101248.03;4858605;28;98160;-67
2022/09/04 18:35:33;;;;;;;2.17;0.50;;;;;;;21.54;40.86;101250.16;4868180;28;98235;-66
2022/09/04 18:38:26;;;;;;;5.57;1.30;;;;;;;21.49;41.01;101259.31;4871356;28;99049;-76
2022/09/04 18:40:54;;;;;;;2.08;1.00;;;;;;;21.44;41.47;101262.22;4849514;28;98177;-67
2022/09/04 18:43:31;;;;;;;1.95;0.90;;;;;;;21.40;41.38;101266.75;4864422;28;98157;-67
2022/09/04 18:46:04;;;;;;;1.77;0.70;;;;;;;21.36;41.73;101273.19;4869465;28;98229;-76
2022/09/04 18:48:31;;;;;;;1.35;0.55;;;;;;;21.32;42.08;101281.22;4868893;28;97967;-67
2022/09/04 18:51:17;;;;;;;2.05;0.70;;;;;;;21.25;41.98;101269.91;4855758;28;98433;-76
2022/09/04 18:53:54;;;;;;;1.73;0.88;;;;;;;21.19;42.02;101273.94;4859928;28;98288;-76
2022/09/04 18:56:40;;;;;;;2.05;0.95;;;;;;;21.14;42.06;101277.63;4873445;28;98781;-75
2022/09/04 18:59:32;;;;;;;1.77;0.80;;;;;;;21.11;42.24;101282.97;4850457;28;98573;-67
2022/09/04 19:02:27;;;;;;;1.20;0.63;;;;;;;21.05;42.22;101277.59;4880487;28;98986;-66
2022/09/04 19:05:10;;;;;;;1.30;0.60;;;;;;;21.00;42.82;101275.03;4891766;28;98178;-67
2022/09/04 19:07:50;;;;;;;;;;;;;;;20.98;41.79;101282.75;4889033;28;98120;-67
2022/09/04 19:10:45;;;;;;;1.15;0.50;;;;;;;20.89;42.49;101284.66;4876396;28;99061;-75
2022/09/04 19:13:33;;;;;;;1.77;0.75;;;;;;;20.84;42.58;101282.06;4863588;28;97910;-66
2022/09/04 19:16:05;;;;;;;1.65;0.77;;;;;;;20.80;43.42;101294.78;4872604;28;98613;-66
2022/09/04 19:18:42;;;;;;;2.08;0.93;;;;;;;20.76;43.13;101297.34;4904641;28;98253;-66
2022/09/04 19:21:22;;;;;;;1.30;0.65;;;;;;;20.72;43.58;101299.09;4894481;28;98272;-75
2022/09/04 19:24:12;;;;;;;2.65;0.82;;;;;;;20.69;43.94;101294.25;4879200;28;98412;-67
2022/09/04 19:27:00;;;;;;;1.75;0.77;;;;;;;20.63;43.98;101297.44;4876857;28;98411;-75
2022/09/04 19:30:14;;;;;;;2.38;0.80;;;;;;;20.59;43.61;101291.75;4898337;28;98015;-66
2022/09/04 19:33:07;;;;;;;1.48;0.68;;;;;;;20.54;43.86;101295.47;4877704;28;98596;-66
2022/09/04 19:35:51;;;;;;;;;;;;;;;20.52;42.93;101299.66;4876564;28;97918;-67
2022/09/04 19:38:28;;;;;;;2.38;0.88;;;;;;;20.41;43.68;101299.06;4891796;28;98424;-67
2022/09/04 19:41:04;;;;;;;1.58;0.75;;;;;;;20.39;44.40;101309.50;4860426;28;99343;-66
2022/09/04 19:43:47;;;;;;;2.22;1.00;;;;;;;20.34;44.54;101304.97;4862706;28;98048;-75
2022/09/04 19:46:41;;;;;;;2.03;0.80;;;;;;;20.29;44.25;101298.84;4877586;28;97936;-66
2022/09/04 19:49:28;;;;;;;1.05;0.60;;;;;;;20.26;44.53;101304.94;4876941;28;98426;-75
2022/09/04 19:52:03;;;;;;;1.73;0.80;;;;;;;20.22;44.43;101306.69;4907568;28;98128;-66
2022/09/04 19:55:13;;;;;;;3.67;0.90;;;;;;;20.20;44.22;101309.75;4861233;28;98532;-66
2022/09/04 19:57:43;;;;;;;2.42;1.00;;;;;;;20.13;44.71;101306.63;4840864;28;98128;-66
2022/09/04 20:00:22;;;;;;;1.10;0.52;;;;;;;20.10;44.96;101315.44;4872315;28;97993;-75
2022/09/04 20:03:12;;;;;;;1.83;0.73;;;;;;;20.07;45.02;101314.13;4860438;28;98237;-66
2022/09/04 20:05:40;;;;;;;2.35;1.00;;;;;;;20.02;45.20;101313.47;4853000;28;98425;-75
2022/09/04 20:08:15;;;;;;;1.00;0.50;;;;;;;20.02;45.20;101321.66;4842815;28;100362;-75
2022/09/04 20:10:46;;;;;;;1.67;0.57;;;;;;;19.97;45.40;101319.06;4865269;28;98781;-66
2022/09/04 20:13:40;;;;;;;1.73;0.63;;;;;;;19.93;45.09;101312.59;4846899;28;97928;-75
2022/09/04 20:16:19;;;;;;;1.52;0.65;;;;;;;19.88;45.16;101312.69;4875936;28;98125;-66
2022/09/04 20:19:26;;;;;;;1.42;0.57;;;;;;;19.84;45.11;101313.31;4900950;28;98389;-67
2022/09/04 20:22:14;;;;;;;2.08;0.60;;;;;;;19.79;45.24;101307.16;4882722;28;98336;-68
2022/09/04 20:24:51;;;;;;;1.48;0.70;;;;;;;19.75;45.51;101315.16;4858971;28;97901;-75
2022/09/04 20:27:53;;;;;;;2.65;0.80;;;;;;;19.73;45.66;101317.41;4857580;28;97896;-66
2022/09/04 20:30:40;;;;;;;1.05;0.35;;;;;;;19.70;45.74;101319.97;4879045;28;98285;-67
2022/09/04 20:33:20;;;;;;;1.60;0.60;;;;;;;19.66;45.58;101321.69;4861211;28;98221;-66
2022/09/04 20:35:58;;;;;;;;;;;;;;;19.65;44.91;101318.16;4831425;28;98357;-75
2022/09/04 20:38:40;;;;;;;1.65;0.70;;;;;;;19.57;45.57;101322.38;4860969;28;98286;-66
2022/09/04 20:42:06;;;;;;;2.53;0.77;;;;;;;19.55;45.52;101316.41;4876562;28;98067;-66
2022/09/04 20:44:41;;;;;;;1.67;0.80;;;;;;;19.50;45.80;101319.25;4868585;28;98237;-66
2022/09/04 20:47:22;;;;;;;1.70;0.73;;;;;;;19.47;45.75;101319.88;4866056;28;97742;-75
2022/09/04 20:50:37;;;;;;;1.92;0.70;;;;;;;19.44;46.03;101327.88;4859480;28;97984;-75
2022/09/04 20:53:45;;;;;;;1.63;0.52;;;;;;;19.40;45.95;101326.88;4838934;28;98174;-75
2022/09/04 20:56:32;;;;;;;1.50;0.77;;;;;;;19.36;46.01;101335.66;4860758;28;98179;-75
2022/09/04 20:59:16;;;;;;;1.80;0.80;;;;;;;19.32;46.18;101339.31;4878177;28;98310;-74
2022/09/04 21:02:24;;;;;;;1.73;0.70;;;;;;;19.34;46.30;101340.66;4874280;28;98349;-75
2022/09/04 21:05:33;;;;;;;1.77;0.77;;;;;;;19.37;46.45;101347.41;4871629;28;98487;-75
2022/09/04 21:08:15;;;;;;;1.55;0.70;;;;;;;19.42;46.46;101350.06;4876160;28;99277;-67
2022/09/04 21:11:02;;;;;;;1.38;0.60;;;;;;;19.47;46.23;101351.88;4858649;28;97939;-74
2022/09/04 21:14:05;;;;;;;1.15;0.50;;;;;;;19.47;46.54;101346.41;4858717;28;98019;-67
2022/09/04 21:16:56;;;;;;;1.58;0.57;;;;;;;19.49;46.42;101349.63;4869184;28;98056;-75
2022/09/04 21:20:12;;;;;;;2.85;0.70;;;;;;;19.50;46.59;101345.78;4901808;28;98477;-66
2022/09/04 21:23:37;;;;;;;1.55;0.50;;;;;;;19.48;46.54;101351.56;4892174;28;98066;-66
2022/09/04 21:26:18;;;;;;;2.00;0.60;;;;;;;19.44;46.74;101353.28;4872133;28;98299;-75
2022/09/04 21:29:13;;;;;;;1.30;0.60;;;;;;;19.43;46.65;101353.59;4876280;28;98207;-66
2022/09/04 21:32:14;;;;;;;3.50;0.73;;;;;;;19.40;46.96;101362.41;4872922;28;98789;-67
2022/09/04 21:35:02;;;;;;;1.08;0.40;;;;;;;19.37;47.51;101364.66;4877192;28;97960;-67
2022/09/04 21:38:04;;;;;;;1.27;0.50;;;;;;;19.36;46.99;101351.25;4906154;28;98111;-75
2022/09/04 21:40:52;;;;;;;1.95;0.57;;;;;;;19.32;46.91;101364.72;4881011;28;98463;-66
2022/09/04 21:43:48;;;;;;;1.13;0.40;;;;;;;19.30;47.06;101366.97;4877495;28;97900;-75
2022/09/04 21:47:02;;;;;;;1.77;0.32;;;;;;;19.28;47.16;101357.44;4905580;28;98189;-66
2022/09/04 21:50:12;;;;;;;1.45;0.70;;;;;;;19.24;47.17;101367.38;4866736;28;100369;-75
2022/09/04 21:53:21;;;;;;;2.53;0.60;;;;;;;19.20;47.11;101375.34;4911457;28;98041;-66
2022/09/04 21:56:06;;;;;;;2.47;0.55;;;;;;;19.14;46.98;101362.94;4891802;28;97762;-66
2022/09/04 21:59:14;;;;;;;2.00;0.57;;;;;;;19.11;47.43;101367.06;4882962;28;98367;-66
2022/09/04 22:01:57;;;;;;;1.40;0.50;;;;;;;19.05;47.77;101379.19;4898474;28;98293;-66
2022/09/04 22:04:54;;;;;;;1.00;0.40;;;;;;;19.04;47.56;101374.03;4906261;28;98220;-66
2022/09/04 22:07:50;;;;;;;1.20;0.63;;;;;;;19.02;47.39;101384.44;4884231;28;98035;-66
2022/09/04 22:10:56;;;;;;;1.40;0.60;;;;;;;18.95;48.19;101384.06;4860434;28;98326;-74
2022/09/04 22:14:24;;;;;;;1.35;0.52;;;;;;;18.91;47.72;101383.03;4869660;28;100167;-74
2022/09/04 22:17:19;;;;;;;1.48;0.40;;;;;;;18.86;47.77;101382.03;4883212;28;98517;-74
2022/09/04 22:19:51;;;;;;;1.20;0.70;;;;;;;18.80;48.06;101368.75;4909338;28;98180;-66
2022/09/04 22:22:57;;;;;;;1.73;0.50;;;;;;;18.80;47.76;101377.75;4911074;28;98849;-75
2022/09/04 22:25:44;;;;;;;0.77;0.55;;;;;;;18.76;47.76;101375.94;4888507;28;97938;-66
2022/09/04 22:28:57;;;;;;;1.25;0.50;;;;;;;18.72;48.08;101367.53;4886790;28;98026;-75
2022/09/04 22:31:27;;;;;;;1.98;0.60;;;;;;;18.68;48.55;101365.66;4888323;28;101211;-66
2022/09/04 22:34:31;;;;;;;1.88;0.43;;;;;;;18.66;48.08;101365.94;4904708;28;97956;-74
2022/09/04 22:37:31;;;;;;;0.98;0.40;;;;;;;18.62;48.29;101371.19;4878601;28;99098;-66
2022/09/04 22:40:11;;;;;;;1.55;0.60;;;;;;;18.57;48.63;101365.03;4891350;28;98276;-75
2022/09/04 22:43:15;;;;;;;1.10;0.45;;;;;;;18.54;48.81;101371.06;4886784;28;97915;-66
2022/09/04 22:46:07;;;;;;;1.65;0.52;;;;;;;18.50;48.33;101357.22;4875805;28;98367;-75
2022/09/04 22:49:14;;;;;;;1.83;0.40;;;;;;;18.46;48.70;101361.66;4896017;28;98530;-66
2022/09/04 22:52:23;;;;;;;1.50;0.50;;;;;;;18.44;48.44;101368.53;4875824;28;98119;-74
2022/09/04 22:55:47;;;;;;;4.40;0.80;;;;;;;18.39;48.61;101375.69;4889179;28;98401;-66
2022/09/04 22:58:41;;;;;;;1.00;0.40;;;;;;;18.34;48.75;101373.03;4862980;28;98287;-75
2022/09/04 23:02:05;;;;;;;1.05;0.50;;;;;;;18.32;48.60;101374.47;4897607;28;98687;-75
2022/09/04 23:05:05;;;;;;;1.20;0.52;;;;;;;18.27;48.76;101371.78;4875202;28;99351;-75
2022/09/04 23:08:11;;;;;;;0.95;0.40;;;;;;;18.22;48.76;101367.22;4906248;28;98129;-66
2022/09/04 23:11:08;;;;;;;1.55;0.38;;;;;;;18.19;49.00;101367.81;4884438;28;98386;-74
2022/09/04 23:13:58;;;;;;;1.80;0.52;;;;;;;18.17;49.21;101369.25;4876385;28;98235;-74
2022/09/04 23:16:38;;;;;;;1.55;0.60;;;;;;;18.13;49.25;101366.28;4875663;28;98330;-75
2022/09/04 23:19:21;;;;;;;1.13;0.50;;;;;;;18.10;49.44;101370.41;4908809;28;97965;-66
2022/09/04 23:22:11;;;;;;;1.63;0.50;;;;;;;18.08;49.49;101367.19;4903575;28;98294;-74
2022/09/04 23:25:09;;;;;;;4.43;0.77;;;;;;;18.07;49.43;101372.91;4886773;28;99538;-74
2022/09/04 23:28:14;;;;;;;1.27;0.43;;;;;;;18.03;49.27;101372.69;4902645;28;98164;-74
2022/09/04 23:31:16;;;;;;;1.17;0.50;;;;;;;17.99;49.55;101370.84;4872912;28;98574;-66
2022/09/04 23:34:09;;;;;;;2.15;0.45;;;;;;;17.95;49.48;101372.56;4888757;28;98598;-73
2022/09/04 23:37:04;;;;;;;2.38;0.88;;;;;;;17.94;49.65;101379.13;4848435;28;98096;-75
2022/09/04 23:39:58;;;;;;;1.73;0.60;;;;;;;17.89;49.75;101374.56;4876380;28;98093;-74
2022/09/04 23:42:54;;;;;;;1.33;0.57;;;;;;;17.85;49.84;101374.31;4877271;28;98073;-66
2022/09/04 23:46:02;;;;;;;1.38;0.57;;;;;;;17.82;49.70;101380.38;4887764;28;98021;-74
2022/09/04 23:49:07;;;;;;;2.03;0.60;;;;;;;17.77;50.29;101394.06;4870486;28;97984;-74
2022/09/04 23:52:06;;;;;;;1.85;0.80;;;;;;;17.71;50.03;101395.19;4876148;28;98378;-67
2022/09/04 23:54:47;;;;;;;1.23;0.55;;;;;;;17.68;50.08;101390.31;4884192;28;98338;-66
2022/09/04 23:57:48;;;;;;;1.25;0.50;;;;;;;17.63;50.09;101390.41;4875969;28;97979;-74
